createdAt,value
2018-03-27T00:01:41.290Z,4.70
2018-03-27T00:04:08.445Z,4.70
2018-03-27T00:06:35.691Z,4.70
2018-03-27T00:09:02.163Z,4.70
2018-03-27T00:11:28.560Z,4.60
2018-03-27T00:13:54.958Z,4.70
2018-03-27T00:16:21.395Z,4.70
2018-03-27T00:18:47.853Z,4.70
2018-03-27T00:21:14.258Z,4.70
2018-03-27T00:23:40.695Z,4.70
2018-03-27T00:26:07.105Z,4.60
2018-03-27T00:28:45.930Z,4.60
2018-03-27T00:31:24.689Z,4.60
2018-03-27T00:34:03.498Z,4.60
2018-03-27T00:36:42.133Z,4.70
2018-03-27T00:39:20.924Z,4.70
2018-03-27T00:45:02.886Z,4.90
2018-03-27T00:47:30.059Z,5.00
2018-03-27T00:49:57.384Z,5.10
2018-03-27T00:52:23.824Z,5.00
2018-03-27T00:54:50.214Z,5.10
2018-03-27T00:57:16.617Z,5.20
2018-03-27T00:59:43.175Z,5.20
2018-03-27T01:02:09.601Z,5.30
2018-03-27T01:04:36.007Z,5.30
2018-03-27T01:07:02.717Z,5.30
2018-03-27T01:09:29.972Z,5.40
2018-03-27T01:11:57.141Z,5.40
2018-03-27T01:14:24.355Z,5.50
2018-03-27T01:16:50.770Z,5.40
2018-03-27T01:19:17.244Z,5.50
2018-03-27T01:21:44.440Z,5.60
2018-03-27T01:24:10.840Z,5.60
2018-03-27T01:26:38.032Z,5.70
2018-03-27T01:29:04.462Z,5.60
2018-03-27T01:31:30.957Z,5.70
2018-03-27T01:33:58.138Z,5.70
2018-03-27T01:36:24.574Z,5.70
2018-03-27T01:38:51.026Z,5.80
2018-03-27T01:41:17.427Z,5.80
2018-03-27T01:43:43.838Z,5.90
2018-03-27T01:46:11.174Z,5.90
2018-03-27T01:48:37.635Z,5.90
2018-03-27T01:51:04.786Z,5.80
2018-03-27T01:53:31.275Z,5.80
2018-03-27T01:55:57.728Z,5.80
2018-03-27T01:58:24.138Z,5.80
2018-03-27T02:00:50.696Z,5.80
2018-03-27T02:03:17.238Z,5.90
2018-03-27T02:05:43.659Z,5.90
2018-03-27T02:08:10.055Z,5.80
2018-03-27T02:10:36.356Z,5.80
2018-03-27T02:13:09.005Z,5.80
2018-03-27T02:15:41.566Z,5.80
2018-03-27T02:18:13.952Z,5.90
2018-03-27T02:20:46.504Z,5.80
2018-03-27T02:23:23.074Z,5.80
2018-03-27T02:25:49.490Z,5.80
2018-03-27T02:28:15.944Z,5.80
2018-03-27T02:30:42.358Z,5.80
2018-03-27T02:33:08.781Z,5.70
2018-03-27T02:35:35.165Z,5.80
2018-03-27T02:38:07.702Z,5.70
2018-03-27T02:40:40.219Z,5.70
2018-03-27T02:43:13.716Z,5.70
2018-03-27T02:45:46.138Z,5.80
2018-03-27T02:48:19.451Z,5.80
2018-03-27T02:50:52.163Z,5.80
2018-03-27T02:53:24.667Z,5.80
2018-03-27T02:55:51.137Z,5.80
2018-03-27T02:58:17.570Z,5.80
2018-03-27T03:00:44.145Z,5.80
2018-03-27T03:03:10.690Z,5.80
2018-03-27T03:05:37.246Z,5.80
2018-03-27T03:08:03.809Z,5.80
2018-03-27T03:10:30.390Z,5.80
2018-03-27T03:12:57.019Z,5.80
2018-03-27T03:15:23.589Z,5.80
2018-03-27T03:17:50.186Z,5.80
2018-03-27T03:20:16.710Z,5.80
2018-03-27T03:22:44.128Z,5.70
2018-03-27T03:25:10.733Z,5.70
2018-03-27T03:27:37.292Z,5.60
2018-03-27T03:30:03.865Z,5.50
2018-03-27T03:32:31.151Z,5.40
2018-03-27T03:34:57.597Z,5.40
2018-03-27T03:37:24.218Z,5.30
2018-03-27T03:39:51.372Z,5.20
2018-03-27T03:42:17.767Z,5.10
2018-03-27T03:44:44.233Z,5.10
2018-03-27T03:47:10.634Z,4.90
2018-03-27T03:49:37.031Z,4.80
2018-03-27T03:52:03.462Z,4.80
2018-03-27T03:54:29.928Z,4.80
2018-03-27T03:56:56.312Z,4.80
2018-03-27T03:59:22.755Z,4.70
2018-03-27T04:01:49.883Z,4.60
2018-03-27T04:04:16.317Z,4.60
2018-03-27T04:06:42.800Z,4.60
2018-03-27T04:09:09.214Z,4.60
2018-03-27T04:11:35.793Z,4.60
2018-03-27T04:14:02.328Z,4.60
2018-03-27T04:16:28.760Z,4.60
2018-03-27T04:18:55.162Z,4.60
2018-03-27T04:21:21.666Z,4.70
2018-03-27T04:23:48.880Z,4.80
2018-03-27T04:26:15.300Z,4.80
2018-03-27T04:28:41.761Z,4.90
2018-03-27T04:31:08.928Z,5.10
2018-03-27T04:33:35.373Z,5.00
2018-03-27T04:36:02.536Z,5.20
2018-03-27T04:38:29.677Z,5.30
2018-03-27T04:40:57.004Z,5.30
2018-03-27T04:43:24.203Z,5.40
2018-03-27T04:45:50.599Z,5.40
2018-03-27T04:48:17.009Z,5.40
2018-03-27T04:50:43.454Z,5.40
2018-03-27T04:53:09.902Z,5.40
2018-03-27T04:55:36.317Z,5.50
2018-03-27T04:58:03.537Z,5.50
2018-03-27T05:00:29.968Z,5.50
2018-03-27T05:02:56.439Z,5.40
2018-03-27T05:05:22.977Z,5.40
2018-03-27T05:07:49.379Z,5.30
2018-03-27T05:10:15.825Z,5.20
2018-03-27T05:12:42.296Z,5.10
2018-03-27T05:15:08.765Z,5.10
2018-03-27T05:17:38.112Z,5.10
2018-03-27T05:20:05.352Z,5.00
2018-03-27T05:22:31.896Z,5.00
2018-03-27T05:24:59.045Z,4.90
2018-03-27T05:27:25.454Z,4.90
2018-03-27T05:29:51.835Z,4.90
2018-03-27T05:32:19.020Z,4.90
2018-03-27T05:34:45.507Z,4.90
2018-03-27T05:37:11.908Z,4.90
2018-03-27T05:39:38.381Z,4.90
2018-03-27T05:42:05.555Z,4.90
2018-03-27T05:44:32.015Z,4.90
2018-03-27T05:46:58.442Z,5.00
2018-03-27T05:49:24.862Z,5.10
2018-03-27T05:51:51.327Z,5.10
2018-03-27T05:54:17.810Z,5.20
2018-03-27T05:56:44.316Z,5.30
2018-03-27T05:59:10.721Z,5.40
2018-03-27T06:01:37.219Z,5.40
2018-03-27T06:04:04.043Z,5.50
2018-03-27T06:06:31.185Z,5.60
2018-03-27T06:08:58.346Z,5.60
2018-03-27T06:11:25.508Z,5.60
2018-03-27T06:13:52.637Z,5.70
2018-03-27T06:16:19.800Z,5.80
2018-03-27T06:18:46.344Z,5.70
2018-03-27T06:21:12.760Z,6.00
2018-03-27T06:23:40.074Z,7.40
2018-03-27T06:26:06.518Z,7.30
2018-03-27T06:28:32.960Z,7.60
2018-03-27T06:31:00.122Z,7.40
2018-03-27T06:33:27.277Z,7.30
2018-03-27T06:35:54.419Z,7.10
2018-03-27T06:38:20.809Z,7.10
2018-03-27T06:40:47.251Z,7.20
2018-03-27T06:43:13.647Z,8.10
2018-03-27T06:45:40.078Z,8.90
2018-03-27T06:48:06.498Z,9.30
2018-03-27T06:50:32.902Z,9.70
2018-03-27T06:52:59.304Z,10.00
2018-03-27T06:55:25.714Z,10.30
2018-03-27T06:57:52.125Z,10.60
2018-03-27T07:00:19.265Z,11.10
2018-03-27T07:02:45.713Z,11.10
2018-03-27T07:05:12.184Z,11.30
2018-03-27T07:07:38.646Z,11.20
2018-03-27T07:10:05.088Z,11.30
2018-03-27T07:12:31.501Z,11.50
2018-03-27T07:14:57.894Z,11.60
2018-03-27T07:17:24.486Z,11.80
2018-03-27T07:19:51.039Z,12.10
2018-03-27T07:22:18.183Z,12.80
2018-03-27T07:24:45.361Z,13.10
2018-03-27T07:27:12.471Z,13.40
2018-03-27T07:29:38.889Z,13.40
2018-03-27T07:32:05.303Z,13.80
2018-03-27T07:34:31.871Z,14.10
2018-03-27T07:36:58.285Z,14.40
2018-03-27T07:39:24.796Z,15.00
2018-03-27T07:41:51.212Z,15.50
2018-03-27T07:44:17.610Z,15.90
2018-03-27T07:46:44.046Z,16.50
2018-03-27T07:49:11.186Z,17.20
2018-03-27T07:51:37.634Z,17.20
2018-03-27T07:54:04.842Z,16.70
2018-03-27T07:56:31.252Z,16.70
2018-03-27T07:58:57.696Z,16.50
2018-03-27T08:01:24.159Z,16.40
2018-03-27T08:03:50.545Z,16.10
2018-03-27T08:06:16.952Z,15.90
2018-03-27T08:08:44.851Z,15.50
2018-03-27T08:11:11.337Z,15.50
2018-03-27T08:13:37.781Z,15.90
2018-03-27T08:16:04.973Z,17.10
2018-03-27T08:18:31.483Z,17.10
2018-03-27T08:20:57.860Z,18.50
2018-03-27T08:23:24.359Z,19.90
2018-03-27T08:25:50.799Z,21.20
2018-03-27T08:28:17.225Z,22.20
2018-03-27T08:30:43.665Z,22.80
2018-03-27T08:33:10.071Z,23.50
2018-03-27T08:35:36.505Z,24.20
2018-03-27T08:38:03.287Z,25.40
2018-03-27T08:40:29.735Z,26.10
2018-03-27T08:42:56.236Z,26.70
2018-03-27T08:45:22.731Z,26.70
2018-03-27T08:47:49.981Z,26.40
2018-03-27T08:50:16.408Z,26.30
2018-03-27T08:52:42.948Z,26.30
2018-03-27T08:55:10.149Z,26.70
2018-03-27T08:57:36.560Z,26.70
2018-03-27T09:00:03.863Z,24.20
2018-03-27T09:02:30.364Z,24.10
2018-03-27T09:04:56.772Z,22.70
2018-03-27T09:07:23.955Z,19.90
2018-03-27T09:09:50.386Z,19.90
2018-03-27T09:12:16.830Z,18.60
2018-03-27T09:14:43.406Z,17.40
2018-03-27T09:17:09.804Z,16.70
2018-03-27T09:19:36.352Z,16.20
2018-03-27T09:22:02.811Z,15.90
2018-03-27T09:24:29.210Z,15.80
2018-03-27T09:26:55.611Z,15.40
2018-03-27T09:29:22.070Z,15.10
2018-03-27T09:31:48.459Z,15.10
2018-03-27T09:34:15.594Z,15.00
2018-03-27T09:36:42.032Z,15.00
2018-03-27T09:39:09.243Z,15.00
2018-03-27T09:41:35.678Z,14.90
2018-03-27T09:44:02.132Z,14.90
2018-03-27T09:46:29.390Z,14.80
2018-03-27T09:48:55.802Z,14.80
2018-03-27T09:51:22.225Z,14.90
2018-03-27T09:53:48.641Z,15.00
2018-03-27T09:56:15.058Z,14.90
2018-03-27T09:58:41.587Z,14.90
2018-03-27T10:01:08.044Z,15.00
2018-03-27T10:03:34.526Z,14.80
2018-03-27T10:06:01.016Z,14.60
2018-03-27T10:08:27.413Z,14.50
2018-03-27T10:10:54.556Z,14.60
2018-03-27T10:13:21.739Z,14.60
2018-03-27T10:15:48.205Z,14.60
2018-03-27T10:18:14.657Z,14.80
2018-03-27T10:20:41.100Z,14.90
2018-03-27T10:23:07.525Z,15.00
2018-03-27T10:25:33.975Z,15.10
2018-03-27T10:28:01.144Z,15.30
2018-03-27T10:30:27.550Z,15.30
2018-03-27T10:32:54.076Z,15.30
2018-03-27T10:35:20.534Z,15.20
2018-03-27T10:37:47.007Z,15.10
2018-03-27T10:40:13.387Z,15.10
2018-03-27T10:42:39.811Z,15.00
2018-03-27T10:45:06.211Z,14.90
2018-03-27T10:47:32.626Z,14.80
2018-03-27T10:49:59.209Z,14.50
2018-03-27T10:52:26.458Z,14.30
2018-03-27T10:54:53.798Z,14.20
2018-03-27T10:57:20.223Z,14.20
2018-03-27T10:59:46.622Z,14.10
2018-03-27T11:02:13.120Z,13.90
2018-03-27T11:04:39.579Z,13.90
2018-03-27T11:07:06.726Z,13.60
2018-03-27T11:09:33.866Z,13.50
2018-03-27T11:12:01.101Z,13.50
2018-03-27T11:14:34.418Z,13.50
2018-03-27T11:17:01.609Z,13.60
2018-03-27T11:19:28.020Z,13.60
2018-03-27T11:21:54.431Z,13.70
2018-03-27T11:24:27.806Z,13.70
2018-03-27T11:26:54.181Z,13.80
2018-03-27T11:29:20.624Z,13.90
2018-03-27T11:31:47.052Z,14.00
2018-03-27T11:34:13.534Z,14.00
2018-03-27T11:36:40.696Z,14.30
2018-03-27T11:39:07.128Z,14.20
2018-03-27T11:41:34.352Z,14.30
2018-03-27T11:44:00.810Z,14.30
2018-03-27T11:46:28.267Z,14.40
2018-03-27T11:48:55.479Z,14.40
2018-03-27T11:51:21.893Z,14.40
2018-03-27T11:53:48.462Z,14.40
2018-03-27T11:56:15.642Z,14.20
2018-03-27T11:58:42.105Z,14.10
2018-03-27T12:01:08.703Z,14.00
2018-03-27T12:03:35.933Z,13.70
2018-03-27T12:06:03.147Z,13.60
2018-03-27T12:08:30.300Z,13.40
2018-03-27T12:10:56.711Z,13.40
2018-03-27T12:13:23.138Z,13.30
2018-03-27T12:15:50.335Z,13.00
2018-03-27T12:18:16.888Z,13.00
2018-03-27T12:20:43.342Z,12.90
2018-03-27T12:23:10.697Z,12.90
2018-03-27T12:25:37.871Z,13.00
2018-03-27T12:28:04.278Z,13.00
2018-03-27T12:30:30.721Z,13.00
2018-03-27T12:32:57.158Z,13.10
2018-03-27T12:35:24.322Z,13.40
2018-03-27T12:37:51.482Z,13.50
2018-03-27T12:40:18.602Z,13.60
2018-03-27T12:42:45.030Z,13.60
2018-03-27T12:45:11.539Z,13.70
2018-03-27T12:47:37.997Z,13.80
2018-03-27T12:50:04.538Z,13.80
2018-03-27T12:52:31.724Z,13.90
2018-03-27T12:54:58.164Z,14.00
2018-03-27T12:57:24.648Z,13.90
2018-03-27T12:59:51.205Z,13.90
2018-03-27T13:02:18.644Z,13.90
2018-03-27T13:04:45.818Z,14.00
2018-03-27T13:07:12.982Z,14.20
2018-03-27T13:09:39.389Z,14.20
2018-03-27T13:12:06.561Z,14.50
2018-03-27T13:14:33.012Z,14.50
2018-03-27T13:16:59.408Z,14.60
2018-03-27T13:19:26.547Z,14.70
2018-03-27T13:21:52.958Z,14.70
2018-03-27T13:24:19.488Z,14.50
2018-03-27T13:26:45.934Z,14.30
2018-03-27T13:29:13.201Z,14.00
2018-03-27T13:31:40.363Z,13.90
2018-03-27T13:34:07.494Z,13.90
2018-03-27T13:36:33.944Z,13.90
2018-03-27T13:39:01.148Z,14.00
2018-03-27T13:41:27.530Z,14.00
2018-03-27T13:43:54.727Z,14.20
2018-03-27T13:46:21.399Z,14.10
2018-03-27T13:48:48.555Z,14.60
2018-03-27T13:51:15.760Z,14.60
2018-03-27T13:53:42.239Z,14.60
2018-03-27T13:56:09.586Z,14.60
2018-03-27T13:58:36.762Z,14.50
2018-03-27T14:01:03.194Z,14.50
2018-03-27T14:03:30.379Z,14.30
2018-03-27T14:05:56.762Z,14.30
2018-03-27T14:08:23.158Z,14.20
2018-03-27T14:10:49.727Z,14.00
2018-03-27T14:13:17.044Z,13.80
2018-03-27T14:15:43.471Z,13.70
2018-03-27T14:18:09.875Z,13.80
2018-03-27T14:20:37.052Z,13.70
2018-03-27T14:23:03.477Z,13.70
2018-03-27T14:25:29.967Z,13.80
2018-03-27T14:27:57.161Z,14.00
2018-03-27T14:30:23.621Z,13.90
2018-03-27T14:32:50.074Z,14.00
2018-03-27T14:35:16.505Z,13.80
2018-03-27T14:37:42.908Z,13.70
2018-03-27T14:40:09.310Z,13.60
2018-03-27T14:42:35.911Z,13.40
2018-03-27T14:45:02.320Z,13.30
2018-03-27T14:47:28.877Z,13.10
2018-03-27T14:49:55.315Z,12.90
2018-03-27T14:52:21.740Z,12.80
2018-03-27T14:54:49.688Z,12.50
2018-03-27T14:57:16.162Z,12.50
2018-03-27T14:59:43.333Z,12.40
2018-03-27T15:02:09.744Z,12.40
2018-03-27T15:04:36.237Z,12.30
2018-03-27T15:07:02.667Z,12.30
2018-03-27T15:09:29.098Z,12.20
2018-03-27T15:11:55.609Z,12.20
2018-03-27T15:14:22.082Z,12.20
2018-03-27T15:16:48.605Z,12.10
2018-03-27T15:19:15.045Z,12.10
2018-03-27T15:21:41.483Z,12.10
2018-03-27T15:24:07.896Z,12.10
2018-03-27T15:26:34.470Z,12.10
2018-03-27T15:29:01.634Z,12.00
2018-03-27T15:31:28.779Z,12.00
2018-03-27T15:33:55.958Z,11.90
2018-03-27T15:36:22.452Z,11.90
2018-03-27T15:38:48.989Z,11.90
2018-03-27T15:41:16.172Z,11.90
2018-03-27T15:43:43.324Z,11.90
2018-03-27T15:46:09.821Z,11.90
2018-03-27T15:48:36.472Z,11.90
2018-03-27T15:51:02.921Z,11.90
2018-03-27T15:53:29.428Z,11.80
2018-03-27T15:55:55.964Z,11.80
2018-03-27T15:58:22.358Z,11.80
2018-03-27T16:00:48.830Z,11.80
2018-03-27T16:03:15.276Z,11.80
2018-03-27T16:05:41.700Z,11.80
2018-03-27T16:08:08.895Z,11.60
2018-03-27T16:10:35.355Z,11.50
2018-03-27T16:13:01.787Z,11.50
2018-03-27T16:15:28.207Z,11.40
2018-03-27T16:17:54.750Z,11.20
2018-03-27T16:20:21.226Z,11.10
2018-03-27T16:22:47.681Z,11.00
2018-03-27T16:25:14.126Z,10.90
2018-03-27T16:27:40.529Z,10.90
2018-03-27T16:30:07.808Z,10.70
2018-03-27T16:32:41.126Z,10.70
2018-03-27T16:35:07.565Z,10.70
2018-03-27T16:37:34.031Z,10.70
2018-03-27T16:40:01.243Z,10.70
2018-03-27T16:42:27.650Z,10.60
2018-03-27T16:44:54.865Z,10.70
2018-03-27T16:47:22.052Z,10.60
2018-03-27T16:49:48.466Z,10.60
2018-03-27T16:52:14.927Z,10.60
2018-03-27T16:54:41.368Z,10.50
2018-03-27T16:57:08.057Z,10.50
2018-03-27T16:59:34.503Z,10.40
2018-03-27T17:02:01.719Z,10.50
2018-03-27T17:04:28.913Z,10.40
2018-03-27T17:06:55.425Z,10.40
2018-03-27T17:09:21.957Z,10.40
2018-03-27T17:11:49.180Z,10.40
2018-03-27T17:14:15.736Z,10.40
2018-03-27T17:16:42.168Z,10.30
2018-03-27T17:19:08.631Z,10.30
2018-03-27T17:21:35.863Z,10.20
2018-03-27T17:24:03.942Z,10.20
2018-03-27T17:26:31.091Z,10.20
2018-03-27T17:28:58.349Z,10.10
2018-03-27T17:31:25.857Z,10.10
2018-03-27T17:33:52.280Z,10.10
2018-03-27T17:36:18.719Z,10.10
2018-03-27T17:38:45.159Z,10.00
2018-03-27T17:41:11.588Z,10.00
2018-03-27T17:43:38.795Z,9.90
2018-03-27T17:46:05.990Z,9.80
2018-03-27T17:48:32.456Z,9.80
2018-03-27T17:50:58.859Z,9.80
2018-03-27T17:53:25.343Z,9.70
2018-03-27T17:55:52.498Z,9.70
2018-03-27T17:58:18.907Z,9.60
2018-03-27T18:00:45.449Z,9.60
2018-03-27T18:03:11.858Z,9.60
2018-03-27T18:05:38.239Z,9.60
2018-03-27T18:08:04.706Z,9.50
2018-03-27T18:10:31.282Z,9.50
2018-03-27T18:12:57.713Z,9.50
2018-03-27T18:15:24.332Z,9.40
2018-03-27T18:17:50.774Z,9.40
2018-03-27T18:20:17.210Z,9.30
2018-03-27T18:22:44.443Z,9.30
2018-03-27T18:25:10.877Z,9.20
2018-03-27T18:27:37.342Z,9.20
2018-03-27T18:30:03.844Z,9.20
2018-03-27T18:32:30.309Z,9.20
2018-03-27T18:34:56.740Z,9.20
2018-03-27T18:37:23.228Z,9.20
2018-03-27T18:39:49.723Z,9.20
2018-03-27T18:42:16.928Z,9.10
2018-03-27T18:44:43.390Z,9.10
2018-03-27T18:47:09.916Z,9.10
2018-03-27T18:49:36.463Z,9.10
2018-03-27T18:52:02.972Z,9.10
2018-03-27T18:54:29.385Z,9.10
2018-03-27T18:56:55.806Z,9.00
2018-03-27T18:59:22.301Z,9.00
2018-03-27T19:01:48.797Z,9.00
2018-03-27T19:04:15.230Z,8.90
2018-03-27T19:06:41.689Z,8.90
2018-03-27T19:09:08.196Z,8.90
2018-03-27T19:11:34.604Z,8.80
2018-03-27T19:14:01.032Z,8.80
2018-03-27T19:16:28.250Z,8.80
2018-03-27T19:18:54.757Z,8.70
2018-03-27T19:21:21.195Z,8.80
2018-03-27T19:23:47.858Z,8.80
2018-03-27T19:26:14.277Z,8.70
2018-03-27T19:28:40.743Z,8.70
2018-03-27T19:31:14.858Z,8.80
2018-03-27T19:33:42.176Z,8.80
2018-03-27T19:36:08.642Z,8.80
2018-03-27T19:38:35.075Z,8.80
2018-03-27T19:41:02.270Z,8.70
2018-03-27T19:43:28.850Z,8.70
2018-03-27T19:45:56.033Z,8.70
2018-03-27T19:48:22.493Z,8.70
2018-03-27T19:50:48.981Z,8.70
2018-03-27T19:53:15.416Z,8.70
2018-03-27T19:55:42.652Z,8.70
2018-03-27T19:58:09.052Z,8.70
2018-03-27T20:00:35.550Z,8.70
2018-03-27T20:03:02.720Z,8.70
2018-03-27T20:05:29.226Z,8.70
2018-03-27T20:07:55.835Z,8.70
2018-03-27T20:10:23.038Z,8.70
2018-03-27T20:12:49.463Z,8.70
2018-03-27T20:15:16.068Z,8.70
2018-03-27T20:17:43.266Z,8.60
2018-03-27T20:20:09.845Z,8.60
2018-03-27T20:22:36.298Z,8.60
2018-03-27T20:25:03.632Z,8.50
2018-03-27T20:27:30.838Z,8.50
2018-03-27T20:29:57.274Z,8.50
2018-03-27T20:32:23.844Z,8.50
2018-03-27T20:34:50.236Z,8.40
2018-03-27T20:37:16.647Z,8.40
2018-03-27T20:39:43.150Z,8.30
2018-03-27T20:42:10.319Z,8.30
2018-03-27T20:44:36.765Z,8.30
2018-03-27T20:47:03.271Z,8.30
2018-03-27T20:49:29.735Z,8.20
2018-03-27T20:51:56.348Z,8.20
2018-03-27T20:54:22.814Z,8.20
2018-03-27T20:56:49.220Z,8.20
2018-03-27T20:59:16.587Z,8.10
2018-03-27T21:01:43.028Z,8.10
2018-03-27T21:04:09.457Z,8.10
2018-03-27T21:06:36.600Z,8.00
2018-03-27T21:09:03.108Z,8.00
2018-03-27T21:11:29.523Z,8.00
2018-03-27T21:13:55.934Z,8.00
2018-03-27T21:16:22.363Z,8.00
2018-03-27T21:18:48.923Z,8.00
2018-03-27T21:21:15.342Z,8.00
2018-03-27T21:23:41.782Z,8.00
2018-03-27T21:26:08.216Z,8.00
2018-03-27T21:28:34.615Z,8.00
2018-03-27T21:31:01.052Z,8.00
2018-03-27T21:33:27.475Z,8.00
2018-03-27T21:35:53.884Z,8.00
2018-03-27T21:38:21.330Z,8.00
2018-03-27T21:40:47.778Z,8.00
2018-03-27T21:43:15.017Z,7.90
2018-03-27T21:45:42.914Z,7.90
2018-03-27T21:48:10.041Z,7.90
2018-03-27T21:50:36.464Z,7.90
2018-03-27T21:53:03.000Z,7.90
2018-03-27T21:55:30.166Z,7.90
2018-03-27T21:57:56.602Z,7.90
2018-03-27T22:00:23.820Z,7.90
2018-03-27T22:02:50.242Z,7.90
2018-03-27T22:05:16.703Z,7.90
2018-03-27T22:07:43.891Z,8.00
2018-03-27T22:10:10.357Z,8.00
2018-03-27T22:12:36.827Z,7.90
2018-03-27T22:15:04.069Z,8.00
2018-03-27T22:17:30.563Z,7.90
2018-03-27T22:19:57.039Z,7.90
2018-03-27T22:22:23.490Z,7.90
2018-03-27T22:24:50.633Z,8.00
2018-03-27T22:27:17.852Z,8.00
2018-03-27T22:29:45.218Z,8.00
2018-03-27T22:32:11.645Z,8.00
2018-03-27T22:34:38.024Z,8.00
2018-03-27T22:37:04.455Z,8.00
2018-03-27T22:39:30.874Z,8.00
2018-03-27T22:41:58.011Z,8.00
2018-03-27T22:44:24.467Z,8.00
2018-03-27T22:46:51.627Z,8.00
2018-03-27T22:49:18.154Z,8.00
2018-03-27T22:51:44.590Z,8.00
2018-03-27T22:54:11.730Z,8.10
2018-03-27T22:56:38.874Z,8.00
2018-03-27T22:59:06.036Z,8.00
2018-03-27T23:01:32.528Z,8.00
2018-03-27T23:03:58.976Z,8.00
2018-03-27T23:06:25.472Z,8.00
2018-03-27T23:08:51.954Z,8.00
2018-03-27T23:11:18.481Z,8.10
2018-03-27T23:13:45.019Z,8.00
2018-03-27T23:16:12.219Z,8.10
2018-03-27T23:18:38.634Z,8.00
2018-03-27T23:21:05.910Z,8.00
2018-03-27T23:23:32.374Z,8.00
2018-03-27T23:25:58.927Z,8.00
2018-03-27T23:28:26.117Z,8.10
2018-03-27T23:30:52.608Z,8.00
2018-03-27T23:33:19.782Z,8.10
2018-03-27T23:35:46.937Z,8.10
2018-03-27T23:38:13.401Z,8.00
2018-03-27T23:40:39.890Z,8.10
2018-03-27T23:43:07.129Z,8.10
2018-03-27T23:45:34.380Z,8.10
2018-03-27T23:48:00.905Z,8.00
2018-03-27T23:50:27.368Z,8.10
2018-03-27T23:52:54.502Z,8.10
2018-03-27T23:55:20.921Z,8.10
2018-03-27T23:57:47.394Z,8.10
